Time;durP1;ratioP1;P1;durP2;ratioP2;P2;SDS_P1;SDS_P2;PMS_P1;PMS_P2;Temp;Humidity;BMP_temperature;BMP_pressure;BME280_temperature;BME280_humidity;BME280_pressure;Samples;Min_cycle;Max_cycle;Signal;HPM_P1;HPM_P2
2021/07/01 00:00:34;;;;;;;12.52;6.97;;;;;;;17.24;69.75;101122.34;5093094;28;20478;-73
2021/07/01 00:02:59;;;;;;;9.35;6.45;;;;;;;17.24;69.57;101123.16;5094246;28;20031;-74
2021/07/01 00:05:25;;;;;;;12.65;7.30;;;;;;;17.25;69.73;101126.75;5082990;28;20039;-73
2021/07/01 00:07:50;;;;;;;8.95;7.03;;;;;;;17.23;69.84;101132.53;5094357;28;20107;-74
2021/07/01 00:10:25;;;;;;;11.57;6.65;;;;;;;17.20;69.70;101121.34;5093527;28;20027;-74
2021/07/01 00:12:51;;;;;;;12.43;8.18;;;;;;;17.19;69.85;101128.78;5076877;28;20016;-74
2021/07/01 00:15:19;;;;;;;9.48;7.03;;;;;;;17.17;69.99;101130.22;5076182;28;20104;-74
2021/07/01 00:17:45;;;;;;;7.57;6.25;;;;;;;17.16;70.08;101131.34;5094050;28;20042;-74
2021/07/01 00:20:11;;;;;;;10.63;6.38;;;;;;;17.15;70.03;101125.00;5094741;28;20458;-75
2021/07/01 00:22:36;;;;;;;10.40;6.55;;;;;;;17.14;69.94;101128.91;5091701;28;20024;-74
2021/07/01 00:25:03;;;;;;;10.32;7.97;;;;;;;17.14;69.93;101123.41;5093651;28;20024;-74
2021/07/01 00:27:28;;;;;;;10.05;6.75;;;;;;;17.14;69.84;101128.91;5093104;28;20028;-74
2021/07/01 00:29:55;;;;;;;10.18;7.35;;;;;;;17.15;70.01;101124.19;5095416;28;20422;-74
2021/07/01 00:32:20;;;;;;;10.90;6.78;;;;;;;17.14;70.02;101123.41;5094246;28;20110;-74
2021/07/01 00:34:46;;;;;;;8.93;6.32;;;;;;;17.13;70.10;101119.00;5094749;28;20052;-74
2021/07/01 00:37:11;;;;;;;10.57;7.55;;;;;;;17.10;70.17;101111.34;5092387;28;20497;-74
2021/07/01 00:39:36;;;;;;;10.27;6.18;;;;;;;17.08;70.41;101113.63;5094155;28;20038;-74
2021/07/01 00:42:02;;;;;;;12.55;7.88;;;;;;;17.06;70.26;101111.16;5092391;28;20039;-74
2021/07/01 00:44:27;;;;;;;13.85;7.45;;;;;;;17.05;70.40;101104.03;5094747;28;20024;-74
2021/07/01 00:46:53;;;;;;;10.15;6.68;;;;;;;17.05;70.41;101105.94;5092923;28;20038;-74
2021/07/01 00:49:18;;;;;;;10.35;6.95;;;;;;;17.02;70.40;101112.09;5094253;28;20024;-74
2021/07/01 00:51:44;;;;;;;12.10;6.93;;;;;;;16.98;70.37;101108.34;5092786;28;20457;-73
2021/07/01 00:54:09;;;;;;;11.98;7.20;;;;;;;16.96;70.41;101107.81;5093331;28;20020;-75
2021/07/01 00:56:37;;;;;;;10.30;7.00;;;;;;;16.91;70.55;101107.94;5091000;28;20054;-74
2021/07/01 00:59:02;;;;;;;10.95;7.05;;;;;;;16.84;70.67;101100.91;5093289;28;20098;-74
2021/07/01 01:01:28;;;;;;;10.70;7.07;;;;;;;16.82;70.65;101105.09;5092276;28;20491;-74
2021/07/01 01:03:53;;;;;;;9.00;6.90;;;;;;;16.78;70.48;101099.38;5092797;28;20012;-74
2021/07/01 01:06:18;;;;;;;10.57;6.57;;;;;;;16.74;70.68;101098.31;5093169;28;20016;-74
2021/07/01 01:08:44;;;;;;;9.60;6.78;;;;;;;16.70;70.49;101097.31;5092924;28;20024;-74
2021/07/01 01:11:09;;;;;;;12.00;6.68;;;;;;;16.67;70.69;101097.94;5090547;28;20024;-74
2021/07/01 01:13:35;;;;;;;10.73;7.05;;;;;;;16.65;70.69;101105.69;5093853;28;20027;-74
2021/07/01 01:16:01;;;;;;;9.55;6.40;;;;;;;16.63;70.70;101102.41;5093051;28;20089;-75
2021/07/01 01:18:27;;;;;;;8.40;5.95;;;;;;;16.59;70.84;101112.44;5093964;28;20103;-74
2021/07/01 01:20:53;;;;;;;11.23;6.70;;;;;;;16.58;70.89;101106.09;5093306;28;20039;-74
2021/07/01 01:23:19;;;;;;;8.00;5.82;;;;;;;16.55;70.99;101112.22;5090819;28;20028;-74
2021/07/01 01:25:49;;;;;;;8.00;6.22;;;;;;;16.53;71.06;101108.13;5089684;28;20016;-74
2021/07/01 01:28:15;;;;;;;9.88;6.95;;;;;;;16.51;71.00;101107.63;5093339;28;20032;-74
2021/07/01 01:30:41;;;;;;;11.63;6.85;;;;;;;16.49;71.13;101107.94;5092343;28;20047;-74
2021/07/01 01:33:07;;;;;;;12.00;6.85;;;;;;;16.48;71.10;101105.47;5093146;28;20078;-74
2021/07/01 01:35:33;;;;;;;10.27;6.88;;;;;;;16.46;71.14;101108.53;5092137;28;20496;-74
2021/07/01 01:37:59;;;;;;;11.50;6.68;;;;;;;16.44;71.00;101110.78;5091539;28;20036;-75
2021/07/01 01:40:24;;;;;;;11.98;6.07;;;;;;;16.42;71.17;101102.84;5093504;28;20051;-74
2021/07/01 01:42:49;;;;;;;9.10;6.97;;;;;;;16.41;71.04;101108.66;5092680;28;20036;-74
2021/07/01 01:45:15;;;;;;;11.98;7.90;;;;;;;16.40;71.07;101104.28;5091685;28;20058;-74
2021/07/01 01:47:48;;;;;;;10.23;6.63;;;;;;;16.37;71.17;101105.69;5092048;28;20020;-73
2021/07/01 01:50:17;;;;;;;11.93;7.43;;;;;;;16.35;71.02;101101.63;5085491;28;20115;-74
2021/07/01 01:52:42;;;;;;;11.35;7.07;;;;;;;16.33;71.08;101099.16;5069003;28;20371;-75
2021/07/01 01:55:10;;;;;;;14.63;7.95;;;;;;;16.29;70.88;101092.66;5083696;28;20031;-73
2021/07/01 01:57:35;;;;;;;12.05;6.95;;;;;;;16.28;70.90;101102.00;5089416;28;20548;-74
2021/07/01 02:00:01;;;;;;;11.07;6.53;;;;;;;16.24;71.03;101097.44;5093115;28;20038;-75
2021/07/01 02:02:26;;;;;;;11.73;6.97;;;;;;;16.21;70.92;101096.09;5088707;28;20028;-74
2021/07/01 02:04:52;;;;;;;10.60;6.68;;;;;;;16.18;71.08;101102.22;5079796;28;20016;-74
2021/07/01 02:07:17;;;;;;;14.70;7.30;;;;;;;16.15;70.95;101097.28;5092173;28;20031;-74
2021/07/01 02:09:43;;;;;;;11.07;6.88;;;;;;;16.12;71.00;101098.75;5091736;28;20019;-74
2021/07/01 02:12:08;;;;;;;10.20;6.38;;;;;;;16.08;71.03;101091.41;5092463;28;20038;-74
2021/07/01 02:14:34;;;;;;;11.35;7.05;;;;;;;16.07;71.05;101095.25;5092079;28;20045;-73
2021/07/01 02:16:59;;;;;;;12.30;7.32;;;;;;;16.04;70.98;101093.09;5092252;28;20020;-74
2021/07/01 02:19:24;;;;;;;9.85;6.70;;;;;;;16.02;70.91;101096.19;5091595;28;20031;-73
2021/07/01 02:21:50;;;;;;;15.70;7.35;;;;;;;16.00;70.88;101094.84;5090432;28;20027;-74
2021/07/01 02:24:15;;;;;;;12.32;6.60;;;;;;;15.97;70.85;101096.28;5093215;28;20027;-75
2021/07/01 02:26:41;;;;;;;12.35;7.90;;;;;;;15.93;70.91;101096.06;5089881;28;20016;-73
2021/07/01 02:29:06;;;;;;;9.23;6.45;;;;;;;15.90;70.88;101096.66;5093195;28;20067;-73
2021/07/01 02:31:31;;;;;;;10.80;5.80;;;;;;;15.87;70.82;101094.50;5092219;28;20435;-74
2021/07/01 02:33:57;;;;;;;15.00;7.68;;;;;;;15.85;70.78;101099.50;5091329;28;20028;-74
2021/07/01 02:36:22;;;;;;;13.30;6.72;;;;;;;15.83;70.74;101109.16;5091426;28;20040;-73
2021/07/01 02:38:48;;;;;;;11.02;7.70;;;;;;;15.79;70.59;101091.63;5092653;28;20016;-74
2021/07/01 02:41:13;;;;;;;11.52;6.50;;;;;;;15.78;70.60;101093.56;5091609;28;20051;-74
2021/07/01 02:43:38;;;;;;;11.73;6.30;;;;;;;15.75;70.43;101095.00;5091295;28;20465;-73
2021/07/01 02:46:04;;;;;;;11.77;5.97;;;;;;;15.75;70.39;101103.22;5089698;28;20020;-74
2021/07/01 02:48:29;;;;;;;14.65;6.43;;;;;;;15.74;70.27;101089.78;5092278;28;20032;-75
2021/07/01 02:50:55;;;;;;;10.45;6.47;;;;;;;15.75;70.29;101096.94;5091383;28;20024;-73
2021/07/01 02:53:20;;;;;;;10.93;6.07;;;;;;;15.74;70.41;101101.63;5091595;28;20027;-73
2021/07/01 02:55:46;;;;;;;9.43;6.20;;;;;;;15.77;69.96;101102.94;5091153;28;20024;-74
2021/07/01 02:58:11;;;;;;;10.43;5.38;;;;;;;15.78;70.00;101098.25;5090462;28;20439;-74
2021/07/01 03:00:36;;;;;;;12.00;5.53;;;;;;;15.77;69.86;101097.44;5091446;28;20426;-73
2021/07/01 03:03:02;;;;;;;8.30;5.50;;;;;;;15.76;69.68;101096.63;5090673;28;20016;-74
2021/07/01 03:05:27;;;;;;;12.63;5.90;;;;;;;15.79;69.50;101100.69;5091560;28;20028;-74
2021/07/01 03:07:53;;;;;;;7.95;5.22;;;;;;;15.79;69.57;101094.38;5091640;28;20465;-73
2021/07/01 03:10:18;;;;;;;10.23;5.28;;;;;;;15.80;69.43;101091.34;5091621;28;20491;-74
2021/07/01 03:12:44;;;;;;;7.03;5.22;;;;;;;15.83;68.93;101098.19;5092633;28;20053;-74
2021/07/01 03:15:09;;;;;;;8.88;4.95;;;;;;;15.83;69.06;101096.25;5095573;28;20073;-74
2021/07/01 03:17:37;;;;;;;7.47;4.90;;;;;;;15.83;69.00;101085.25;5093619;28;20092;-74
2021/07/01 03:20:03;;;;;;;9.15;4.43;;;;;;;15.85;68.65;101080.25;5096481;28;20020;-74
2021/07/01 03:22:29;;;;;;;8.48;5.35;;;;;;;15.87;68.56;101082.69;5095740;28;20042;-73
2021/07/01 03:24:54;;;;;;;7.70;4.63;;;;;;;15.89;68.56;101091.47;5094073;28;20388;-74
2021/07/01 03:27:19;;;;;;;7.57;4.70;;;;;;;15.90;68.32;101088.41;5095291;28;20077;-74
2021/07/01 03:29:45;;;;;;;14.95;5.78;;;;;;;15.93;68.17;101096.06;5095543;28;20028;-74
2021/07/01 03:32:10;;;;;;;6.30;4.22;;;;;;;15.94;68.23;101089.44;5095139;28;20086;-74
2021/07/01 03:34:36;;;;;;;7.95;5.15;;;;;;;15.95;68.16;101077.31;5077967;28;20035;-74
2021/07/01 03:37:01;;;;;;;8.05;5.80;;;;;;;15.95;68.04;101082.81;5094006;28;20028;-74
2021/07/01 03:39:27;;;;;;;7.82;4.70;;;;;;;15.95;67.81;101076.50;5096272;28;20020;-75
2021/07/01 03:41:52;;;;;;;8.07;4.57;;;;;;;15.94;67.84;101080.38;5093302;28;20196;-74
2021/07/01 03:44:18;;;;;;;6.95;4.95;;;;;;;15.94;67.93;101086.69;5095907;28;20028;-74
2021/07/01 03:46:43;;;;;;;8.63;5.13;;;;;;;15.94;67.78;101092.19;5094200;28;20024;-74
2021/07/01 03:49:09;;;;;;;8.48;4.60;;;;;;;15.93;67.60;101087.81;5093799;28;20036;-74
2021/07/01 03:51:34;;;;;;;10.75;4.47;;;;;;;15.94;67.31;101089.44;5094845;28;20070;-73
2021/07/01 03:54:00;;;;;;;6.45;4.38;;;;;;;15.94;67.42;101085.88;5093173;28;20023;-74
2021/07/01 03:56:25;;;;;;;7.78;4.30;;;;;;;15.96;67.45;101089.97;5095772;28;20039;-74
2021/07/01 03:58:50;;;;;;;7.07;4.45;;;;;;;15.97;67.47;101080.56;5094912;28;20051;-74
2021/07/01 04:01:16;;;;;;;9.13;4.88;;;;;;;16.00;67.31;101089.34;5094818;28;20469;-73
2021/07/01 04:03:41;;;;;;;7.78;3.92;;;;;;;16.01;67.13;101085.47;5093367;28;20489;-74
2021/07/01 04:06:07;;;;;;;6.38;4.30;;;;;;;16.03;66.86;101075.00;5093110;28;20027;-73
2021/07/01 04:08:32;;;;;;;8.38;4.30;;;;;;;16.06;66.80;101082.63;5093526;28;20021;-74
2021/07/01 04:10:57;;;;;;;7.63;4.38;;;;;;;16.11;66.75;101088.03;5095483;28;20041;-74
2021/07/01 04:13:23;;;;;;;5.65;4.15;;;;;;;16.12;66.37;101087.75;5094502;28;20024;-73
2021/07/01 04:15:48;;;;;;;6.95;4.28;;;;;;;16.16;66.35;101085.19;5094250;28;20024;-74
2021/07/01 04:18:14;;;;;;;10.00;4.47;;;;;;;16.19;66.22;101079.09;5093507;28;20518;-73
2021/07/01 04:20:40;;;;;;;13.30;4.30;;;;;;;16.24;66.03;101078.19;5094501;28;20020;-74
2021/07/01 04:23:05;;;;;;;6.55;4.28;;;;;;;16.26;65.89;101085.00;5093349;28;20396;-75
2021/07/01 04:25:32;;;;;;;6.72;4.13;;;;;;;16.28;65.45;101088.25;5074794;28;20028;-74
2021/07/01 04:27:57;;;;;;;6.72;4.25;;;;;;;16.30;65.34;101082.44;5093205;28;20080;-74
2021/07/01 04:30:22;;;;;;;5.32;4.05;;;;;;;16.32;65.28;101081.03;5094590;28;20031;-74
2021/07/01 04:32:48;;;;;;;7.00;3.92;;;;;;;16.34;65.05;101078.78;5094422;28;20469;-74
2021/07/01 04:35:13;;;;;;;4.93;3.63;;;;;;;16.38;64.63;101079.81;5094988;28;20054;-74
2021/07/01 04:37:39;;;;;;;6.00;3.50;;;;;;;16.44;64.71;101083.25;5093995;28;20039;-74
2021/07/01 04:40:09;;;;;;;6.35;3.47;;;;;;;16.47;63.96;101081.84;5094951;28;20035;-74
2021/07/01 04:42:38;;;;;;;5.00;3.28;;;;;;;16.45;63.74;101078.56;5092221;28;20024;-74
2021/07/01 04:45:07;;;;;;;7.80;3.85;;;;;;;16.39;63.52;101075.91;5095117;28;20034;-74
2021/07/01 04:47:33;;;;;;;5.68;3.83;;;;;;;16.34;63.51;101076.03;5092503;28;20477;-74
2021/07/01 04:49:58;;;;;;;8.55;3.20;;;;;;;16.30;63.53;101077.75;5056862;28;20066;-74
2021/07/01 04:52:24;;;;;;;5.20;3.28;;;;;;;16.24;63.44;101072.69;5089242;28;20507;-75
2021/07/01 04:54:50;;;;;;;5.25;3.53;;;;;;;16.18;63.49;101075.53;5092939;28;20028;-74
2021/07/01 04:57:15;;;;;;;4.30;3.00;;;;;;;16.15;63.40;101069.78;5092665;28;20016;-75
2021/07/01 04:59:40;;;;;;;4.18;2.97;;;;;;;16.13;63.37;101074.81;5091465;28;20461;-74
2021/07/01 05:02:06;;;;;;;5.25;2.60;;;;;;;16.09;63.42;101077.31;5092226;28;20039;-73
2021/07/01 05:04:31;;;;;;;4.90;2.80;;;;;;;16.07;63.67;101074.09;5093424;28;20024;-73
2021/07/01 05:06:57;;;;;;;6.78;3.25;;;;;;;16.08;63.49;101066.66;5091555;28;20028;-73
2021/07/01 05:09:22;;;;;;;7.60;3.30;;;;;;;16.12;63.51;101065.75;5093317;28;20736;-73
2021/07/01 05:11:47;;;;;;;7.82;3.47;;;;;;;16.17;63.31;101062.88;5094601;28;20027;-73
2021/07/01 05:14:13;;;;;;;6.32;3.05;;;;;;;16.22;63.27;101059.22;5093601;28;20476;-75
2021/07/01 05:16:38;;;;;;;4.38;2.65;;;;;;;16.28;63.24;101052.47;5093911;28;20035;-72
2021/07/01 05:19:04;;;;;;;8.40;3.17;;;;;;;16.30;63.05;101052.19;5093286;28;20050;-75
2021/07/01 05:21:29;;;;;;;7.63;3.38;;;;;;;16.31;62.91;101043.59;5093121;28;20124;-73
2021/07/01 05:23:55;;;;;;;7.88;3.03;;;;;;;16.32;62.82;101047.19;5091168;28;20024;-75
2021/07/01 05:26:20;;;;;;;9.85;2.95;;;;;;;16.34;62.59;101056.78;5093031;28;20094;-75
2021/07/01 05:28:46;;;;;;;7.70;3.05;;;;;;;16.36;62.66;101054.50;5092496;28;20039;-76
2021/07/01 05:31:12;;;;;;;6.78;2.85;;;;;;;16.35;62.67;101047.41;5094306;28;20035;-75
2021/07/01 05:33:37;;;;;;;7.75;3.47;;;;;;;16.27;62.77;101053.63;5090782;28;20471;-76
2021/07/01 05:36:03;;;;;;;8.57;3.20;;;;;;;16.19;62.78;101049.63;5091821;28;20039;-75
2021/07/01 05:38:28;;;;;;;6.38;3.35;;;;;;;16.14;63.04;101051.66;5091183;28;20028;-75
2021/07/01 05:40:54;;;;;;;6.00;2.67;;;;;;;16.12;63.17;101048.41;5091053;28;20024;-75
2021/07/01 05:43:19;;;;;;;8.63;2.80;;;;;;;16.08;63.14;101041.91;5090635;28;20043;-75
2021/07/01 05:45:45;;;;;;;8.57;2.80;;;;;;;16.06;63.05;101038.63;5093515;28;20515;-75
2021/07/01 05:48:11;;;;;;;5.63;3.05;;;;;;;16.03;63.10;101034.53;5089454;28;20035;-73
2021/07/01 05:50:49;;;;;;;7.32;3.72;;;;;;;16.03;63.18;101033.75;5089885;28;20111;-73
2021/07/01 05:53:23;;;;;;;8.73;3.05;;;;;;;16.03;63.39;101028.22;5091624;28;20099;-74
2021/07/01 05:55:48;;;;;;;6.45;3.42;;;;;;;16.05;63.41;101021.31;5088318;28;20055;-74
2021/07/01 05:58:13;;;;;;;5.35;2.58;;;;;;;16.08;63.49;101020.69;5092378;28;20485;-74
2021/07/01 06:00:39;;;;;;;7.13;3.17;;;;;;;16.15;63.59;101009.28;5092672;28;20031;-75
2021/07/01 06:03:04;;;;;;;6.70;2.83;;;;;;;16.28;63.67;101008.47;5091269;28;20104;-75
2021/07/01 06:05:30;;;;;;;9.25;3.80;;;;;;;16.37;63.52;101012.13;5093352;28;20534;-74
2021/07/01 06:07:56;;;;;;;6.05;2.60;;;;;;;16.43;63.29;101021.91;5092015;28;20020;-75
2021/07/01 06:10:22;;;;;;;6.82;3.13;;;;;;;16.48;63.13;101017.41;5072019;28;20074;-74
2021/07/01 06:12:47;;;;;;;6.72;2.63;;;;;;;16.53;63.02;101026.41;5091002;28;20024;-74
2021/07/01 06:15:13;;;;;;;4.68;2.28;;;;;;;16.56;62.90;101016.69;5093499;28;20016;-74
2021/07/01 06:17:39;;;;;;;5.03;2.75;;;;;;;16.60;62.85;101025.97;5090691;28;20157;-75
2021/07/01 06:20:06;;;;;;;4.18;2.67;;;;;;;16.65;62.86;101014.84;5092247;28;20024;-75
2021/07/01 06:22:31;;;;;;;5.55;2.70;;;;;;;16.73;62.76;101024.31;5071639;28;20038;-75
2021/07/01 06:24:57;;;;;;;5.72;2.15;;;;;;;16.85;62.45;101021.84;5093066;28;20019;-75
2021/07/01 06:27:38;;;;;;;5.78;2.83;;;;;;;16.95;62.51;101009.81;5091125;28;20023;-74
2021/07/01 06:30:09;;;;;;;6.17;3.07;;;;;;;17.10;62.01;101012.16;5092169;28;20028;-75
2021/07/01 06:32:41;;;;;;;6.57;2.38;;;;;;;17.29;61.84;101021.06;5089980;28;20024;-74
2021/07/01 06:35:07;;;;;;;3.97;2.42;;;;;;;17.53;61.46;101014.41;5091596;28;20098;-76
2021/07/01 06:37:33;;;;;;;8.70;2.40;;;;;;;17.80;60.89;101020.94;5092139;28;20062;-75
2021/07/01 06:39:58;;;;;;;6.18;2.20;;;;;;;18.02;60.52;101020.88;5091602;28;20465;-75
2021/07/01 06:42:24;;;;;;;4.10;2.47;;;;;;;18.26;60.08;101009.44;5092774;28;20035;-75
2021/07/01 06:44:49;;;;;;;2.75;1.80;;;;;;;18.46;59.42;101013.53;5090513;28;20385;-74
2021/07/01 06:47:14;;;;;;;5.13;2.33;;;;;;;18.59;58.90;101001.53;5075042;28;20028;-75
2021/07/01 06:49:40;;;;;;;3.95;2.40;;;;;;;18.67;58.40;101012.94;5073600;28;20028;-74
2021/07/01 06:52:06;;;;;;;4.05;1.85;;;;;;;18.78;58.32;101020.59;5090477;28;20559;-74
2021/07/01 06:54:31;;;;;;;4.57;2.20;;;;;;;18.91;57.94;101007.78;5090479;28;20043;-74
2021/07/01 06:56:57;;;;;;;4.00;2.38;;;;;;;19.04;57.50;101012.34;5091209;28;20104;-75
2021/07/01 06:59:23;;;;;;;3.50;2.25;;;;;;;19.13;57.27;101008.75;5090604;28;20113;-74
2021/07/01 07:01:48;;;;;;;5.45;1.83;;;;;;;19.17;57.02;101009.72;5074891;28;20024;-74
2021/07/01 07:04:15;;;;;;;3.50;2.05;;;;;;;19.18;56.75;101005.78;5071022;28;20046;-74
2021/07/01 07:06:41;;;;;;;4.68;2.03;;;;;;;19.08;56.54;101005.00;5081121;28;20025;-74
2021/07/01 07:09:06;;;;;;;4.28;1.98;;;;;;;19.07;56.68;101006.16;5073410;28;20028;-75
2021/07/01 07:11:35;;;;;;;4.55;1.70;;;;;;;19.08;56.55;100995.91;5091453;28;20024;-74
2021/07/01 07:14:01;;;;;;;4.90;2.15;;;;;;;19.04;56.46;101001.28;5091796;28;20420;-74
2021/07/01 07:16:26;;;;;;;3.97;2.35;;;;;;;19.06;56.29;100996.22;5090886;28;20032;-74
2021/07/01 07:18:52;;;;;;;3.78;2.08;;;;;;;19.09;56.14;101003.03;5069261;28;20040;-74
2021/07/01 07:21:17;;;;;;;3.85;1.77;;;;;;;19.22;56.12;100998.50;5070850;28;20008;-74
2021/07/01 07:23:43;;;;;;;4.00;2.30;;;;;;;19.37;55.77;101000.75;5090215;28;20427;-75
2021/07/01 07:26:17;;;;;;;7.65;2.75;;;;;;;19.50;55.15;100991.44;5074244;28;20484;-74
2021/07/01 07:28:42;;;;;;;3.42;2.00;;;;;;;19.60;54.86;101000.53;5091212;28;20028;-74
2021/07/01 07:31:12;;;;;;;7.20;2.28;;;;;;;19.69;54.65;100998.56;5074407;28;20040;-74
2021/07/01 07:33:37;;;;;;;4.32;1.90;;;;;;;19.77;54.50;100986.66;5087603;28;20116;-74
2021/07/01 07:36:03;;;;;;;3.65;2.28;;;;;;;19.81;54.25;100992.38;5079217;28;20048;-74
2021/07/01 07:38:29;;;;;;;4.00;2.15;;;;;;;19.89;54.13;100986.78;5089954;28;20020;-75
2021/07/01 07:40:54;;;;;;;5.15;2.20;;;;;;;19.96;53.92;100989.03;5091264;28;20469;-74
2021/07/01 07:43:21;;;;;;;3.08;1.90;;;;;;;19.99;53.42;100990.31;5089091;28;20020;-75
2021/07/01 07:45:47;;;;;;;6.57;2.60;;;;;;;19.95;53.42;100990.19;5072398;28;20039;-75
2021/07/01 07:48:13;;;;;;;4.38;2.10;;;;;;;19.94;53.34;100983.00;5089743;28;20419;-74
2021/07/01 07:50:38;;;;;;;6.57;1.98;;;;;;;19.89;53.71;100991.53;5091355;28;20077;-74
2021/07/01 07:53:05;;;;;;;10.10;2.45;;;;;;;19.81;54.06;100989.59;5090849;28;20082;-75
2021/07/01 07:55:30;;;;;;;4.93;2.25;;;;;;;19.75;54.12;100986.19;5073350;28;20028;-74
2021/07/01 07:57:58;;;;;;;3.60;1.95;;;;;;;19.72;54.30;100975.78;5075893;28;20035;-75
2021/07/01 08:00:26;;;;;;;6.38;2.10;;;;;;;19.81;53.82;100984.88;5074722;28;20475;-75
2021/07/01 08:02:54;;;;;;;4.00;1.80;;;;;;;19.91;53.74;100973.41;5085929;28;20028;-75
2021/07/01 08:05:24;;;;;;;3.88;1.83;;;;;;;20.05;53.45;100983.44;5074053;28;20051;-75
2021/07/01 08:07:50;;;;;;;3.28;1.80;;;;;;;20.12;53.69;100978.22;5091894;28;20024;-75
2021/07/01 08:10:17;;;;;;;3.72;1.92;;;;;;;20.12;53.22;100978.22;5094840;28;20019;-76
2021/07/01 08:12:44;;;;;;;5.97;2.20;;;;;;;20.21;53.37;100976.19;5076257;28;20032;-75
2021/07/01 08:15:20;;;;;;;5.22;1.75;;;;;;;20.23;52.88;100979.44;5091477;28;20027;-75
2021/07/01 08:17:49;;;;;;;5.95;2.10;;;;;;;20.20;52.51;100984.84;5092067;28;20398;-75
2021/07/01 08:20:16;;;;;;;3.88;1.90;;;;;;;20.18;52.50;100971.34;5093795;28;20043;-75
2021/07/01 08:22:46;;;;;;;2.78;1.90;;;;;;;20.22;52.92;100966.78;5094230;28;20028;-72
2021/07/01 08:25:11;;;;;;;4.03;1.98;;;;;;;20.30;52.67;100985.28;5075767;28;20024;-75
2021/07/01 08:27:38;;;;;;;4.82;1.98;;;;;;;20.29;52.54;100980.88;5093545;28;20031;-75
2021/07/01 08:30:04;;;;;;;4.13;1.80;;;;;;;20.28;52.46;100981.22;5092576;28;20115;-75
2021/07/01 08:32:31;;;;;;;3.90;1.92;;;;;;;20.21;52.54;100967.91;5093710;28;20498;-74
2021/07/01 08:34:57;;;;;;;7.28;2.20;;;;;;;20.14;52.84;100978.69;5093756;28;20059;-75
2021/07/01 08:37:23;;;;;;;6.07;2.17;;;;;;;20.15;52.86;100977.53;5093642;28;20024;-75
2021/07/01 08:39:49;;;;;;;5.38;1.83;;;;;;;20.20;53.02;100971.81;5075756;28;20043;-75
2021/07/01 08:42:14;;;;;;;3.90;2.35;;;;;;;20.32;53.09;100974.66;5092739;28;20016;-75
2021/07/01 08:44:44;;;;;;;4.40;2.25;;;;;;;20.45;52.93;100980.31;5075861;28;20036;-75
2021/07/01 08:47:12;;;;;;;8.38;2.60;;;;;;;20.65;52.63;100984.25;5093109;28;20069;-75
2021/07/01 08:49:51;;;;;;;5.53;2.67;;;;;;;20.78;52.69;100983.97;5092818;28;20501;-75
2021/07/01 08:52:16;;;;;;;4.72;2.40;;;;;;;20.94;52.52;100983.38;5075008;28;20107;-75
2021/07/01 08:54:45;;;;;;;4.40;2.47;;;;;;;20.96;51.95;100981.09;5074593;28;20070;-75
2021/07/01 08:57:11;;;;;;;4.15;2.40;;;;;;;20.93;51.91;100993.66;5072389;28;20028;-75
2021/07/01 08:59:53;;;;;;;6.45;2.50;;;;;;;20.91;51.97;100989.59;5073570;28;20024;-75
2021/07/01 09:02:23;;;;;;;5.50;2.58;;;;;;;20.97;51.72;100991.81;5091062;28;20473;-76
2021/07/01 09:04:54;;;;;;;5.50;2.22;;;;;;;21.01;51.67;100992.78;5077101;28;20077;-75
2021/07/01 09:07:22;;;;;;;5.75;2.13;;;;;;;21.02;51.70;100993.59;5074231;28;20031;-76
2021/07/01 09:09:59;;;;;;;3.53;2.58;;;;;;;21.27;51.59;101003.59;5073468;28;20028;-75
2021/07/01 09:12:26;;;;;;;4.65;2.30;;;;;;;21.64;51.17;100992.66;5089987;28;20032;-76
2021/07/01 09:15:05;;;;;;;3.95;2.33;;;;;;;21.86;50.53;101001.72;5094295;28;20023;-75
2021/07/01 09:17:32;;;;;;;4.82;2.55;;;;;;;21.89;50.18;100984.38;5091593;28;20043;-75
2021/07/01 09:19:58;;;;;;;5.30;2.20;;;;;;;21.90;50.15;100997.06;5072685;28;20048;-75
2021/07/01 09:22:24;;;;;;;7.00;2.83;;;;;;;22.02;50.17;100997.09;5085234;28;20024;-74
2021/07/01 09:24:50;;;;;;;2.75;2.22;;;;;;;22.19;49.83;100984.16;5093617;28;20109;-75
2021/07/01 09:27:16;;;;;;;5.60;2.65;;;;;;;22.19;49.37;101001.63;5071569;28;20036;-75
2021/07/01 09:29:42;;;;;;;5.95;2.65;;;;;;;22.17;49.50;101006.69;5092901;28;20069;-75
2021/07/01 09:32:08;;;;;;;6.10;2.83;;;;;;;22.24;49.50;101008.94;5092368;28;20035;-75
2021/07/01 09:34:34;;;;;;;5.15;2.25;;;;;;;22.30;49.64;101010.31;5093407;28;20039;-76
2021/07/01 09:37:01;;;;;;;3.55;2.30;;;;;;;22.32;49.27;101010.78;5090252;28;20028;-75
2021/07/01 09:39:27;;;;;;;3.65;2.50;;;;;;;22.37;49.22;101010.53;5091623;28;20085;-75
2021/07/01 09:42:01;;;;;;;6.00;3.03;;;;;;;22.49;49.28;101010.53;5074447;28;20387;-75
2021/07/01 09:44:28;;;;;;;4.43;2.50;;;;;;;22.44;49.09;101007.97;5072413;28;20020;-75
2021/07/01 09:46:54;;;;;;;4.45;2.83;;;;;;;22.42;49.33;101015.84;5084660;28;20047;-75
2021/07/01 09:49:20;;;;;;;5.45;2.22;;;;;;;22.36;49.40;101012.50;5091309;28;20035;-75
2021/07/01 09:51:53;;;;;;;3.65;2.50;;;;;;;22.28;49.68;101018.19;5074534;28;20036;-76
2021/07/01 09:54:20;;;;;;;;;;;;;;;22.29;49.77;101019.78;5092746;28;20027;-76
2021/07/01 09:56:45;;;;;;;4.60;2.20;;;;;;;22.14;49.96;101019.31;5091449;28;19922;-75
2021/07/01 09:59:22;;;;;;;5.43;2.22;;;;;;;22.03;50.39;101015.38;5072399;28;20411;-76
2021/07/01 10:01:47;;;;;;;4.47;2.50;;;;;;;22.03;51.17;101015.38;5074812;28;20094;-76
2021/07/01 10:04:12;;;;;;;6.00;2.92;;;;;;;22.06;51.65;101014.66;5074491;28;20028;-75
2021/07/01 10:06:38;;;;;;;3.50;2.40;;;;;;;22.02;51.47;101024.88;5073386;28;20035;-75
2021/07/01 10:09:06;;;;;;;5.13;2.70;;;;;;;21.92;51.37;101026.13;5071958;28;20037;-75
2021/07/01 10:11:38;;;;;;;3.45;2.20;;;;;;;21.80;51.38;101012.22;5091957;28;20556;-72
2021/07/01 10:14:06;;;;;;;4.53;2.25;;;;;;;21.80;51.63;101005.84;5093144;28;20062;-75
2021/07/01 10:16:32;;;;;;;3.30;2.50;;;;;;;21.80;51.12;101011.41;5090510;28;20032;-76
2021/07/01 10:18:58;;;;;;;3.53;2.17;;;;;;;21.79;51.29;101018.13;5093144;28;20031;-75
2021/07/01 10:21:27;;;;;;;3.80;2.38;;;;;;;21.72;50.95;101010.38;5070434;28;20031;-75
2021/07/01 10:24:09;;;;;;;4.47;2.45;;;;;;;21.75;51.12;101025.53;5087244;28;20016;-73
2021/07/01 10:26:39;;;;;;;5.50;2.88;;;;;;;21.82;51.10;101020.19;5090412;28;20024;-73
2021/07/01 10:29:05;;;;;;;5.15;2.83;;;;;;;21.89;50.94;101020.44;5091292;28;20047;-75
2021/07/01 10:31:45;;;;;;;5.85;2.65;;;;;;;21.95;50.56;101024.63;5068035;28;20032;-73
2021/07/01 10:34:11;;;;;;;3.20;2.55;;;;;;;21.97;50.43;101038.97;5078598;28;20047;-73
2021/07/01 10:36:36;;;;;;;4.28;2.33;;;;;;;21.97;50.65;101038.16;5089275;28;20048;-75
2021/07/01 10:39:02;;;;;;;5.60;2.50;;;;;;;21.94;50.86;101034.09;5090583;28;20043;-73
2021/07/01 10:41:30;;;;;;;4.25;2.42;;;;;;;21.97;50.77;101036.19;5090438;28;20354;-75
2021/07/01 10:43:56;;;;;;;6.75;3.05;;;;;;;22.01;50.79;101030.75;5091088;28;20016;-75
2021/07/01 10:46:43;;;;;;;5.47;2.50;;;;;;;22.04;50.63;101039.19;5090931;28;20034;-74
2021/07/01 10:49:08;;;;;;;4.78;2.60;;;;;;;22.09;50.57;101038.97;5091315;28;20107;-76
2021/07/01 10:51:34;;;;;;;3.38;2.20;;;;;;;22.20;50.45;101035.78;5073947;28;20107;-73
2021/07/01 10:54:13;;;;;;;3.65;2.33;;;;;;;22.30;50.18;101029.75;5074233;28;20385;-75
2021/07/01 10:56:42;;;;;;;4.15;2.17;;;;;;;22.24;50.15;101042.28;5074245;28;20477;-75
2021/07/01 10:59:08;;;;;;;5.05;2.92;;;;;;;22.16;50.30;101044.78;5090612;28;20028;-75
2021/07/01 11:01:35;;;;;;;5.60;2.25;;;;;;;22.06;50.10;101036.06;5090597;28;20024;-75
2021/07/01 11:04:14;;;;;;;7.38;3.13;;;;;;;21.89;50.37;101037.91;5074179;28;20032;-75
2021/07/01 11:06:41;;;;;;;2.75;2.05;;;;;;;21.73;50.49;101040.53;5090414;28;20024;-75
2021/07/01 11:09:08;;;;;;;3.50;2.20;;;;;;;21.68;50.36;101043.53;5087853;28;20032;-74
2021/07/01 11:11:34;;;;;;;4.55;2.42;;;;;;;21.65;50.71;101044.22;5090269;28;20039;-76
2021/07/01 11:14:01;;;;;;;6.28;2.47;;;;;;;21.70;50.79;101052.31;5092633;28;20024;-76
2021/07/01 11:16:33;;;;;;;3.65;2.67;;;;;;;21.92;50.89;101041.97;5091246;28;20123;-75
2021/07/01 11:18:59;;;;;;;3.45;1.90;;;;;;;22.01;50.42;101033.53;5091719;28;20108;-75
2021/07/01 11:21:25;;;;;;;4.82;2.40;;;;;;;22.02;50.15;101049.06;5089689;28;20111;-75